Eau Galle, Wisconsin
Current Conditions -  °F | °C
As of 10:55 PM on Wednesday 22 Oct 2014 (Local Time) from KLUM Reporting Station
Overcast Overcast  
Wind Chill: 50°   Ceiling: 6500
Heat Index: 50°   Visibility: 10mi
Dew Point: 42°   Wind: 5mph
Humidity: 72%   Direction: 100°E
Pressure: 30.09"   Gusts: NA
Location:  44.69°N, 92.01°W
Report Text: KLUM 230355Z AUTO 10004KT 10SM BKN065 BKN085 OVC110 10/05 A3009 RMK AO2 T01020054
Loading
Personal Weather Stations






























Interactive Weather Map
Tropical Storm Tracking
New forecast layout! Learn more

10-Day Weather Forecast

Advertisements
Track Severe Weather on mobile